Time;durP1;ratioP1;P1;durP2;ratioP2;P2;SDS_P1;SDS_P2;PMS_P1;PMS_P2;Temp;Humidity;BMP_temperature;BMP_pressure;BME280_temperature;BME280_humidity;BME280_pressure;Samples;Min_cycle;Max_cycle;Signal;HPM_P1;HPM_P2
2023/01/26 00:00:03;;;;;;;;;;;;;;;15.61;42.74;102585.44;2092638;28;19929;-58
2023/01/26 00:01:09;;;;;;;;;;;;;;;15.61;42.84;102585.44;2094159;28;19929;-58
2023/01/26 00:02:11;;;;;;;;;;;;;;;15.60;42.72;102590.06;2092493;28;19932;-58
2023/01/26 00:03:14;;;;;;;;;;;;;;;15.60;42.86;102589.31;2089956;28;19936;-58
2023/01/26 00:04:15;;;;;;;;;;;;;;;15.59;42.88;102583.06;2097898;28;19924;-59
2023/01/26 00:05:18;;;;;;;;;;;;;;;15.59;42.64;102585.78;2095925;28;20600;-58
2023/01/26 00:06:21;;;;;;;;;;;;;;;15.59;42.79;102582.25;2094878;28;19928;-58
2023/01/26 00:07:24;;;;;;;;;;;;;;;15.58;42.68;102581.47;2094898;28;19929;-58
2023/01/26 00:08:25;;;;;;;;;;;;;;;15.58;42.72;102595.06;2084815;28;19928;-58
2023/01/26 00:09:28;;;;;;;;;;;;;;;15.59;42.87;102593.94;2081450;28;19940;-59
2023/01/26 00:10:29;;;;;;;;;;;;;;;15.58;42.65;102586.09;2095074;28;19928;-56
2023/01/26 00:11:32;;;;;;;;;;;;;;;15.57;42.83;102593.47;2096831;28;19932;-59
2023/01/26 00:12:34;;;;;;;;;;;;;;;15.56;42.86;102597.31;2095582;28;19932;-59
2023/01/26 00:13:36;;;;;;;;;;;;;;;15.56;42.68;102589.16;2092381;28;19933;-58
2023/01/26 00:14:50;;;;;;;;;;;;;;;15.56;42.93;102588.34;2081264;28;19929;-57
2023/01/26 00:15:53;;;;;;;;;;;;;;;15.55;42.84;102593.03;2081782;28;20757;-59
2023/01/26 00:16:54;;;;;;;;;;;;;;;15.55;42.70;102590.28;2085715;28;20043;-59
2023/01/26 00:17:57;;;;;;;;;;;;;;;15.55;42.84;102584.03;2081450;28;19925;-59
2023/01/26 00:18:59;;;;;;;;;;;;;;;15.54;42.74;102582.47;2080904;28;19968;-58
2023/01/26 00:20:02;;;;;;;;;;;;;;;15.53;42.65;102587.09;2094959;28;19924;-58
2023/01/26 00:21:04;;;;;;;;;;;;;;;15.52;42.91;102582.78;2093828;28;20392;-58
2023/01/26 00:22:08;;;;;;;;;;;;;;;15.52;42.78;102582.78;2090749;28;19939;-57
2023/01/26 00:23:09;;;;;;;;;;;;;;;15.52;42.81;102580.06;2089960;28;19929;-58
2023/01/26 00:24:12;;;;;;;;;;;;;;;15.52;42.81;102587.44;2089853;28;19925;-57
2023/01/26 00:25:14;;;;;;;;;;;;;;;15.51;42.96;102581.19;2095539;28;19933;-56
2023/01/26 00:26:17;;;;;;;;;;;;;;;15.51;42.72;102575.75;2097129;28;19971;-57
2023/01/26 00:27:19;;;;;;;;;;;;;;;15.52;42.88;102576.53;2090148;28;19925;-58
2023/01/26 00:28:21;;;;;;;;;;;;;;;15.50;43.02;102571.44;2093234;28;19928;-58
2023/01/26 00:29:23;;;;;;;;;;;;;;;15.50;42.84;102578.78;2095011;28;20360;-57
2023/01/26 00:30:26;;;;;;;;;;;;;;;15.50;42.97;102576.88;2090736;28;20325;-58
2023/01/26 00:31:27;;;;;;;;;;;;;;;15.49;42.74;102566.31;2092366;28;19983;-57
2023/01/26 00:32:30;;;;;;;;;;;;;;;15.50;42.88;102568.72;2090486;28;20383;-59
2023/01/26 00:33:31;;;;;;;;;;;;;;;15.49;42.96;102569.81;2097645;28;19924;-58
2023/01/26 00:34:34;;;;;;;;;;;;;;;15.48;42.82;102562.78;2092903;28;19928;-58
2023/01/26 00:35:36;;;;;;;;;;;;;;;15.48;42.97;102565.50;2089755;28;19982;-58
2023/01/26 00:36:38;;;;;;;;;;;;;;;15.47;43.01;102558.50;2089519;28;20409;-58
2023/01/26 00:37:41;;;;;;;;;;;;;;;15.47;43.00;102558.50;2084517;28;19940;-58
2023/01/26 00:38:44;;;;;;;;;;;;;;;15.47;43.10;102561.22;2080963;28;19936;-58
2023/01/26 00:39:45;;;;;;;;;;;;;;;15.46;42.96;102553.38;2090309;28;19941;-57
2023/01/26 00:40:48;;;;;;;;;;;;;;;15.46;43.04;102562.31;2092623;28;19932;-58
2023/01/26 00:43:10;;;;;;;;;;;;;;;15.45;43.01;102560.72;2089334;28;19929;-58
2023/01/26 00:44:12;;;;;;;;;;;;;;;15.45;42.88;102549.84;2092219;28;19929;-58
2023/01/26 00:45:15;;;;;;;;;;;;;;;15.45;42.90;102551.75;2089656;28;19933;-57
2023/01/26 00:46:18;;;;;;;;;;;;;;;15.45;43.07;102557.22;2091506;28;19975;-57
2023/01/26 00:47:21;;;;;;;;;;;;;;;15.44;43.13;102553.72;2091507;28;19968;-58
2023/01/26 00:48:23;;;;;;;;;;;;;;;15.44;43.09;102553.72;2095712;28;20473;-56
2023/01/26 00:49:26;;;;;;;;;;;;;;;15.45;42.89;102555.28;2089425;28;19948;-58
2023/01/26 00:50:28;;;;;;;;;;;;;;;15.42;43.05;102547.78;2089539;28;19950;-59
2023/01/26 00:51:31;;;;;;;;;;;;;;;15.43;43.01;102546.66;2092243;28;19925;-59
2023/01/26 00:52:33;;;;;;;;;;;;;;;15.43;42.97;102540.44;2094283;28;19928;-58
2023/01/26 00:53:37;;;;;;;;;;;;;;;15.42;42.94;102549.72;2089456;28;20395;-58
2023/01/26 00:54:38;;;;;;;;;;;;;;;15.42;43.03;102561.41;2097884;28;19936;-57
2023/01/26 00:55:41;;;;;;;;;;;;;;;15.41;43.01;102548.13;2094010;28;20012;-58
2023/01/26 00:56:42;;;;;;;;;;;;;;;15.42;43.05;102549.72;2084008;28;19936;-59
2023/01/26 00:57:45;;;;;;;;;;;;;;;15.40;43.14;102552.75;2080469;28;19982;-58
2023/01/26 00:58:47;;;;;;;;;;;;;;;15.41;43.08;102550.84;2089667;28;19928;-59
2023/01/26 00:59:49;;;;;;;;;;;;;;;15.41;43.10;102556.28;2097648;28;19935;-58
2023/01/26 01:00:52;;;;;;;;;;;;;;;15.40;42.89;102554.69;2090464;28;19929;-58
2023/01/26 01:01:54;;;;;;;;;;;;;;;15.39;42.93;102556.63;2090225;28;20037;-57
2023/01/26 01:02:56;;;;;;;;;;;;;;;15.39;43.14;102555.81;2089705;28;19936;-57
2023/01/26 01:03:59;;;;;;;;;;;;;;;15.39;43.08;102556.63;2094661;28;19935;-57
2023/01/26 01:05:00;;;;;;;;;;;;;;;15.38;43.00;102560.44;2089920;28;19932;-58
2023/01/26 01:06:03;;;;;;;;;;;;;;;15.38;43.06;102557.72;2080726;28;19929;-57
2023/01/26 01:07:05;;;;;;;;;;;;;;;15.37;42.93;102553.41;2066928;28;19933;-57
2023/01/26 01:08:07;;;;;;;;;;;;;;;15.36;43.14;102562.69;2080114;28;19984;-57
2023/01/26 01:09:10;;;;;;;;;;;;;;;15.37;42.85;102558.84;2093901;28;19939;-58
2023/01/26 01:10:13;;;;;;;;;;;;;;;15.37;42.99;102561.56;2090374;28;19929;-58
2023/01/26 01:11:15;;;;;;;;;;;;;;;15.36;42.88;102559.97;2090784;28;19929;-58
2023/01/26 01:12:17;;;;;;;;;;;;;;;15.36;43.19;102561.88;2092362;28;21748;-58
2023/01/26 01:13:19;;;;;;;;;;;;;;;15.36;42.63;102561.88;2097090;28;19928;-58
2023/01/26 01:14:22;;;;;;;;;;;;;;;15.35;43.05;102563.81;2094684;28;19982;-57
2023/01/26 01:15:23;;;;;;;;;;;;;;;15.35;42.89;102571.19;2091903;28;19935;-57
2023/01/26 01:16:27;;;;;;;;;;;;;;;15.34;43.09;102558.69;2087842;28;19976;-59
2023/01/26 01:17:29;;;;;;;;;;;;;;;15.34;43.06;102559.50;2087047;28;19928;-58
2023/01/26 01:18:31;;;;;;;;;;;;;;;15.34;43.06;102559.50;2089431;28;19925;-58
2023/01/26 01:19:33;;;;;;;;;;;;;;;15.32;43.01;102550.88;2089317;28;19929;-58
2023/01/26 01:20:35;;;;;;;;;;;;;;;15.33;43.02;102557.91;2093188;28;20391;-57
2023/01/26 01:21:37;;;;;;;;;;;;;;;15.33;42.82;102557.91;2094266;28;19986;-58
2023/01/26 01:22:40;;;;;;;;;;;;;;;15.32;43.17;102561.75;2095538;28;19954;-58
2023/01/26 01:23:42;;;;;;;;;;;;;;;15.33;42.95;102557.13;2091638;28;19928;-58
2023/01/26 01:24:46;;;;;;;;;;;;;;;15.31;42.96;102560.16;2095040;28;19971;-58
2023/01/26 01:25:55;;;;;;;;;;;;;;;15.31;42.98;102565.59;2087657;28;19929;-58
2023/01/26 01:26:58;;;;;;;;;;;;;;;15.31;43.05;102567.53;2088884;28;19939;-56
2023/01/26 01:27:59;;;;;;;;;;;;;;;15.31;43.18;102568.34;2096186;28;20581;-58
2023/01/26 01:29:02;;;;;;;;;;;;;;;15.31;42.98;102571.06;2096111;28;19924;-57
2023/01/26 01:30:06;;;;;;;;;;;;;;;15.30;43.09;102568.66;2090970;28;20467;-57
2023/01/26 01:31:10;;;;;;;;;;;;;;;15.30;42.87;102580.31;2091989;28;19929;-58
2023/01/26 01:32:12;;;;;;;;;;;;;;;15.29;42.98;102573.28;2091803;28;20408;-57
2023/01/26 01:33:15;;;;;;;;;;;;;;;15.29;43.13;102578.75;2094401;28;20303;-57
2023/01/26 01:34:17;;;;;;;;;;;;;;;15.29;43.09;102578.75;2097797;28;19925;-58
2023/01/26 01:35:19;;;;;;;;;;;;;;;15.29;42.89;102581.47;2094834;28;19928;-57
2023/01/26 01:36:21;;;;;;;;;;;;;;;15.29;43.12;102581.47;2093242;28;19932;-57
2023/01/26 01:37:28;;;;;;;;;;;;;;;15.28;43.02;102584.50;2095193;28;19936;-58
2023/01/26 01:38:30;;;;;;;;;;;;;;;15.28;43.00;102588.03;2092985;28;19959;-58
2023/01/26 01:39:32;;;;;;;;;;;;;;;15.27;43.16;102586.44;2089358;28;19931;-57
2023/01/26 01:40:41;;;;;;;;;;;;;;;15.27;43.18;102586.44;2090220;28;20395;-57
2023/01/26 01:41:43;;;;;;;;;;;;;;;15.27;43.17;102589.16;2088649;28;20292;-58
2023/01/26 01:42:45;;;;;;;;;;;;;;;15.26;43.09;102590.28;2085560;28;19986;-57
2023/01/26 01:43:48;;;;;;;;;;;;;;;15.26;42.98;102587.56;2095828;28;19935;-58
2023/01/26 01:45:05;;;;;;;;;;;;;;;15.27;43.10;102580.97;2092921;28;19935;-58
2023/01/26 01:46:12;;;;;;;;;;;;;;;15.25;43.15;102583.25;2093673;28;19932;-57
2023/01/26 01:47:18;;;;;;;;;;;;;;;15.25;43.14;102577.00;2090841;28;20418;-57
2023/01/26 01:48:23;;;;;;;;;;;;;;;15.25;43.18;102580.53;2091831;28;19929;-57
2023/01/26 01:49:26;;;;;;;;;;;;;;;15.24;42.92;102578.94;2090783;28;19925;-58
2023/01/26 01:50:37;;;;;;;;;;;;;;;15.23;42.85;102582.78;2089883;28;19935;-58
2023/01/26 01:51:41;;;;;;;;;;;;;;;15.24;43.05;102581.66;2087958;28;19928;-58
2023/01/26 01:52:45;;;;;;;;;;;;;;;15.24;43.03;102581.66;2078812;28;20422;-57
2023/01/26 01:53:49;;;;;;;;;;;;;;;15.23;43.26;102584.69;2083257;28;20307;-58
2023/01/26 01:54:53;;;;;;;;;;;;;;;15.23;43.12;102577.34;2083103;28;19972;-58
2023/01/26 01:55:57;;;;;;;;;;;;;;;15.22;43.06;102578.47;2083495;28;20355;-57
2023/01/26 01:57:03;;;;;;;;;;;;;;;15.21;42.90;102582.31;2081172;28;19929;-57
2023/01/26 01:58:05;;;;;;;;;;;;;;;15.22;43.05;102583.94;2072411;28;19976;-58
2023/01/26 01:59:09;;;;;;;;;;;;;;;15.20;43.02;102578.00;2086468;28;20390;-58
2023/01/26 02:00:12;;;;;;;;;;;;;;;15.21;43.14;102585.03;2092859;28;19950;-57
2023/01/26 02:01:15;;;;;;;;;;;;;;;15.20;43.04;102580.72;2094200;28;19928;-57
2023/01/26 02:02:17;;;;;;;;;;;;;;;15.20;43.08;102580.72;2093376;28;20417;-58
2023/01/26 02:03:20;;;;;;;;;;;;;;;15.20;43.01;102580.72;2080550;28;19968;-58
2023/01/26 02:04:22;;;;;;;;;;;;;;;15.20;43.35;102577.19;2081663;28;19925;-58
2023/01/26 02:05:27;;;;;;;;;;;;;;;15.19;43.11;102573.66;2093345;28;20007;-58
2023/01/26 02:06:34;;;;;;;;;;;;;;;15.19;43.06;102572.91;2094332;28;20437;-59
2023/01/26 02:07:36;;;;;;;;;;;;;;;15.18;42.99;102572.09;2096333;28;19928;-59
2023/01/26 02:08:42;;;;;;;;;;;;;;;15.18;43.14;102577.53;2088703;28;20364;-59
2023/01/26 02:11:10;;;;;;;;;;;;;;;15.18;43.28;102565.84;2080149;28;19937;-58
2023/01/26 02:12:13;;;;;;;;;;;;;;;15.17;43.10;102575.94;2077669;28;20328;-57
2023/01/26 02:13:17;;;;;;;;;;;;;;;15.17;43.07;102569.69;2072372;28;20093;-58
2023/01/26 02:14:19;;;;;;;;;;;;;;;15.18;43.21;102572.09;2080661;28;19936;-59
2023/01/26 02:15:23;;;;;;;;;;;;;;;15.16;43.37;102568.88;2088816;28;20380;-58
2023/01/26 02:16:25;;;;;;;;;;;;;;;15.15;43.24;102570.03;2095358;28;19928;-59
2023/01/26 02:17:27;;;;;;;;;;;;;;;15.15;43.25;102567.31;2081781;28;20360;-59
2023/01/26 02:18:30;;;;;;;;;;;;;;;15.15;43.15;102567.31;2079765;28;19998;-58
2023/01/26 02:19:37;;;;;;;;;;;;;;;15.15;43.45;102567.31;2080452;28;19937;-59
2023/01/26 02:20:43;;;;;;;;;;;;;;;15.15;43.11;102567.31;2089648;28;19928;-59
2023/01/26 02:21:49;;;;;;;;;;;;;;;15.14;43.15;102565.72;2085336;28;19929;-58
2023/01/26 02:22:55;;;;;;;;;;;;;;;15.15;43.18;102566.50;2087411;28;19959;-58
2023/01/26 02:24:07;;;;;;;;;;;;;;;15.13;43.42;102558.66;2083140;28;19929;-56
2023/01/26 02:25:12;;;;;;;;;;;;;;;15.13;43.26;102555.94;2084040;28;19929;-57
2023/01/26 02:26:18;;;;;;;;;;;;;;;15.13;43.18;102564.09;2074282;28;19925;-57
2023/01/26 02:27:20;;;;;;;;;;;;;;;15.12;43.41;102561.72;2072379;28;19926;-57
2023/01/26 02:28:25;;;;;;;;;;;;;;;15.13;43.34;102566.84;2071783;28;19933;-57
2023/01/26 02:29:27;;;;;;;;;;;;;;;15.13;43.15;102563.34;2083684;28;20415;-58
2023/01/26 02:30:31;;;;;;;;;;;;;;;15.11;43.37;102550.03;2083376;28;20023;-58
2023/01/26 02:31:33;;;;;;;;;;;;;;;15.11;43.28;102550.03;2081166;28;20142;-57
2023/01/26 02:32:35;;;;;;;;;;;;;;;15.11;43.31;102550.03;2089418;28;19936;-58
2023/01/26 02:33:37;;;;;;;;;;;;;;;15.11;43.51;102560.91;2093848;28;20006;-58
2023/01/26 02:34:40;;;;;;;;;;;;;;;15.11;43.45;102550.03;2087077;28;19951;-58
2023/01/26 02:35:42;;;;;;;;;;;;;;;15.10;43.17;102556.59;2084439;28;20339;-58
2023/01/26 02:36:45;;;;;;;;;;;;;;;15.10;43.48;102553.06;2096284;28;19929;-58
2023/01/26 02:37:46;;;;;;;;;;;;;;;15.10;43.32;102564.78;2095951;28;19928;-58
2023/01/26 02:38:53;;;;;;;;;;;;;;;15.09;43.38;102560.47;2078313;28;20237;-58
2023/01/26 02:39:58;;;;;;;;;;;;;;;15.09;43.20;102565.09;2070081;28;20408;-58
2023/01/26 02:41:04;;;;;;;;;;;;;;;15.09;43.50;102560.47;2076521;28;19932;-59
2023/01/26 02:43:28;;;;;;;;;;;;;;;15.08;43.41;102561.56;2079963;28;19977;-58
2023/01/26 02:44:31;;;;;;;;;;;;;;;15.07;43.40;102557.28;2079884;28;19925;-57
2023/01/26 02:45:34;;;;;;;;;;;;;;;15.07;43.36;102565.44;2092961;28;20674;-59
2023/01/26 02:46:36;;;;;;;;;;;;;;;15.07;43.35;102564.63;2079943;28;20168;-58
2023/01/26 02:47:39;;;;;;;;;;;;;;;15.07;43.49;102562.72;2081265;28;19929;-57
2023/01/26 02:50:09;;;;;;;;;;;;;;;15.07;43.58;102564.63;2058968;28;19952;-58
2023/01/26 02:51:12;;;;;;;;;;;;;;;15.06;43.42;102561.13;2085220;28;19928;-58
2023/01/26 02:52:14;;;;;;;;;;;;;;;15.06;43.39;102566.56;2096686;28;20382;-58
2023/01/26 02:53:19;;;;;;;;;;;;;;;15.05;43.56;102561.47;2080587;28;19929;-58
2023/01/26 02:55:41;;;;;;;;;;;;;;;15.05;43.81;102564.94;2092921;28;19932;-59
2023/01/26 02:56:44;;;;;;;;;;;;;;;15.05;43.33;102558.72;2085012;28;19929;-59
2023/01/26 02:57:47;;;;;;;;;;;;;;;15.04;43.45;102557.94;2072013;28;19925;-58
2023/01/26 02:58:50;;;;;;;;;;;;;;;15.04;43.48;102563.38;2085072;28;20376;-57
2023/01/26 02:59:52;;;;;;;;;;;;;;;15.03;43.54;102559.84;2095593;28;19961;-58
2023/01/26 03:00:54;;;;;;;;;;;;;;;15.03;43.54;102564.50;2094912;28;20006;-57
2023/01/26 03:01:57;;;;;;;;;;;;;;;15.03;43.50;102561.78;2094448;28;19933;-59
2023/01/26 03:03:01;;;;;;;;;;;;;;;15.02;43.68;102560.16;2089269;28;19928;-59
2023/01/26 03:04:04;;;;;;;;;;;;;;;15.01;43.74;102551.19;2080069;28;19929;-59
2023/01/26 03:05:07;;;;;;;;;;;;;;;15.02;43.57;102565.63;2072284;28;19925;-58
2023/01/26 03:06:10;;;;;;;;;;;;;;;15.02;43.76;102557.44;2076042;28;20304;-58
2023/01/26 03:07:12;;;;;;;;;;;;;;;15.01;43.69;102555.88;2075981;28;20028;-59
2023/01/26 03:08:14;;;;;;;;;;;;;;;15.02;43.74;102554.72;2087266;28;19940;-58
2023/01/26 03:09:17;;;;;;;;;;;;;;;15.02;43.80;102562.88;2086980;28;19982;-58
2023/01/26 03:10:22;;;;;;;;;;;;;;;15.01;43.92;102553.16;2075041;28;19929;-58
2023/01/26 03:11:40;;;;;;;;;;;;;;;15.01;43.75;102550.44;2086365;28;19947;-59
2023/01/26 03:12:46;;;;;;;;;;;;;;;15.01;43.70;102553.16;2083896;28;20339;-59
2023/01/26 03:13:50;;;;;;;;;;;;;;;15.00;43.82;102549.63;2081895;28;19976;-59
2023/01/26 03:15:33;;;;;;;;;;;;;;;15.00;43.59;102551.53;2088595;28;19964;-58
2023/01/26 03:16:18;;;;;;;;;;;;;;;14.99;43.70;102548.03;2084205;28;19929;-59
2023/01/26 03:17:22;;;;;;;;;;;;;;;15.00;43.57;102554.25;2072924;28;19926;-58
2023/01/26 03:27:49;;;;;;;;;;;;;;;14.96;43.94;102559.56;2092925;28;19933;-59
2023/01/26 03:28:53;;;;;;;;;;;;;;;14.97;43.91;102554.91;2076280;28;19971;-57
2023/01/26 03:29:56;;;;;;;;;;;;;;;14.97;44.01;102557.63;2079703;28;20004;-59
2023/01/26 03:30:58;;;;;;;;;;;;;;;14.97;43.81;102568.50;2084757;28;20352;-58
2023/01/26 03:32:01;;;;;;;;;;;;;;;14.96;43.74;102558.78;2081634;28;19937;-57
2023/01/26 03:33:04;;;;;;;;;;;;;;;14.97;43.86;102557.63;2075460;28;19929;-59
2023/01/26 03:34:07;;;;;;;;;;;;;;;14.96;43.89;102562.28;2073792;28;19978;-58
2023/01/26 03:35:13;;;;;;;;;;;;;;;14.96;44.08;102561.50;2082948;28;20315;-58
2023/01/26 03:36:16;;;;;;;;;;;;;;;14.95;44.15;102562.63;2080659;28;19938;-58
2023/01/26 03:37:21;;;;;;;;;;;;;;;14.95;43.94;102557.97;2076484;28;20640;-58
2023/01/26 03:38:36;;;;;;;;;;;;;;;14.94;44.04;102553.66;2088070;28;20275;-59
2023/01/26 03:57:13;;;;;;;;;;;;;;;14.91;44.38;102548.06;2081744;28;19929;-59
2023/01/26 03:58:15;;;;;;;;;;;;;;;14.91;44.15;102546.16;2080065;28;20312;-58
2023/01/26 03:59:36;;;;;;;;;;;;;;;14.91;44.32;102545.34;2094575;28;19939;-59
2023/01/26 04:00:42;;;;;;;;;;;;;;;14.91;44.37;102545.34;2084791;28;19928;-58
2023/01/26 04:08:41;;;;;;;;;;;;;;;14.89;44.43;102547.59;2087455;28;20301;-58
2023/01/26 04:09:43;;;;;;;;;;;;;;;14.88;44.90;102541.38;2079880;28;20466;-57
2023/01/26 04:10:46;;;;;;;;;;;;;;;14.89;44.77;102542.16;2073543;28;19929;-58
2023/01/26 04:11:48;;;;;;;;;;;;;;;14.88;44.60;102546.81;2086276;28;20713;-58
2023/01/26 04:22:17;;;;;;;;;;;;;;;14.87;44.90;102545.19;2095915;28;20039;-58
2023/01/26 04:23:21;;;;;;;;;;;;;;;14.86;45.03;102549.06;2081275;28;19968;-57
2023/01/26 04:24:25;;;;;;;;;;;;;;;14.86;45.01;102546.34;2073324;28;19930;-57
2023/01/26 04:25:30;;;;;;;;;;;;;;;14.87;45.23;102541.72;2075459;28;19928;-58
2023/01/26 04:26:35;;;;;;;;;;;;;;;14.87;45.12;102541.72;2074906;28;20854;-58
2023/01/26 04:27:41;;;;;;;;;;;;;;;14.86;45.07;102542.81;2088762;28;19925;-57
2023/01/26 04:28:44;;;;;;;;;;;;;;;14.86;45.22;102543.63;2094855;28;19936;-57
2023/01/26 04:29:45;;;;;;;;;;;;;;;14.87;45.12;102539.00;2085618;28;20292;-57
2023/01/26 04:30:49;;;;;;;;;;;;;;;14.86;45.24;102538.19;2083817;28;19929;-57
2023/01/26 04:31:50;;;;;;;;;;;;;;;14.86;45.34;102537.38;2082838;28;19929;-58
2023/01/26 04:32:58;;;;;;;;;;;;;;;14.86;45.24;102532.75;2082620;28;19932;-58
2023/01/26 04:33:59;;;;;;;;;;;;;;;14.85;45.26;102533.88;2081223;28;20070;-58
2023/01/26 04:35:03;;;;;;;;;;;;;;;14.86;45.12;102537.38;2078365;28;19929;-58
2023/01/26 04:36:06;;;;;;;;;;;;;;;14.85;45.22;102531.16;2071422;28;19931;-57
2023/01/26 04:37:12;;;;;;;;;;;;;;;14.86;45.46;102529.22;2065437;28;19936;-58
2023/01/26 04:38:18;;;;;;;;;;;;;;;14.86;45.56;102537.38;2077380;28;19972;-57
2023/01/26 04:39:21;;;;;;;;;;;;;;;14.87;45.51;102528.09;2081995;28;20403;-57
2023/01/26 04:40:27;;;;;;;;;;;;;;;14.85;45.76;102531.16;2085659;28;20434;-57
2023/01/26 04:41:31;;;;;;;;;;;;;;;14.85;45.67;102519.47;2078168;28;19982;-57
2023/01/26 04:42:37;;;;;;;;;;;;;;;14.85;45.53;102524.91;2081544;28;19976;-58
2023/01/26 04:43:40;;;;;;;;;;;;;;;14.84;46.08;102526.81;2078707;28;19933;-58
2023/01/26 04:44:42;;;;;;;;;;;;;;;14.84;45.97;102524.09;2076597;28;20010;-57
2023/01/26 04:45:45;;;;;;;;;;;;;;;14.85;45.61;102524.91;2081593;28;19929;-57
2023/01/26 04:46:47;;;;;;;;;;;;;;;14.84;45.96;102526.81;2089832;28;19973;-57
2023/01/26 04:47:50;;;;;;;;;;;;;;;14.84;45.98;102526.03;2085075;28;19963;-57
2023/01/26 04:48:53;;;;;;;;;;;;;;;14.84;46.13;102526.03;2079047;28;20447;-57
2023/01/26 04:49:56;;;;;;;;;;;;;;;14.84;46.27;102526.03;2072927;28;20293;-58
2023/01/26 04:50:59;;;;;;;;;;;;;;;14.83;46.03;102525.25;2076957;28;20372;-57
2023/01/26 04:52:02;;;;;;;;;;;;;;;14.83;46.31;102521.72;2082615;28;19925;-58
2023/01/26 04:53:04;;;;;;;;;;;;;;;14.82;46.35;102517.41;2081415;28;20387;-58
2023/01/26 04:54:07;;;;;;;;;;;;;;;14.82;46.25;102523.66;2081238;28;19925;-57
2023/01/26 04:55:14;;;;;;;;;;;;;;;14.83;46.27;102521.72;2080156;28;19929;-58
2023/01/26 04:56:19;;;;;;;;;;;;;;;14.83;46.27;102527.16;2081328;28;20585;-58
2023/01/26 04:57:22;;;;;;;;;;;;;;;14.83;46.55;102527.16;2085442;28;20025;-58
2023/01/26 04:58:25;;;;;;;;;;;;;;;14.83;46.30;102519.00;2072909;28;19972;-57
2023/01/26 04:59:28;;;;;;;;;;;;;;;14.82;46.30;102523.66;2079689;28;19929;-58
2023/01/26 05:00:33;;;;;;;;;;;;;;;14.82;46.45;102520.13;2081644;28;19929;-58
2023/01/26 05:01:37;;;;;;;;;;;;;;;14.82;46.45;102526.38;2086365;28;19937;-56
2023/01/26 05:02:40;;;;;;;;;;;;;;;14.83;46.46;102516.28;2080236;28;20425;-58
2023/01/26 05:03:44;;;;;;;;;;;;;;;14.82;46.51;102522.84;2079922;28;19933;-57
2023/01/26 05:04:47;;;;;;;;;;;;;;;14.82;46.64;102520.13;2078690;28;19929;-58
2023/01/26 05:05:50;;;;;;;;;;;;;;;14.81;46.57;102521.25;2077904;28;20331;-58
2023/01/26 05:06:54;;;;;;;;;;;;;;;14.82;46.81;102526.38;2074321;28;20444;-58
2023/01/26 05:07:58;;;;;;;;;;;;;;;14.81;46.70;102523.97;2085429;28;19929;-58
2023/01/26 05:09:03;;;;;;;;;;;;;;;14.81;46.74;102526.69;2079363;28;19929;-57
2023/01/26 05:10:07;;;;;;;;;;;;;;;14.82;46.83;102528.28;2078131;28;19933;-58
2023/01/26 05:11:26;;;;;;;;;;;;;;;14.81;46.86;102529.41;2084025;28;19933;-56
2023/01/26 05:12:33;;;;;;;;;;;;;;;14.81;46.78;102523.97;2081651;28;19987;-56
2023/01/26 05:13:54;;;;;;;;;;;;;;;14.81;46.61;102529.41;2081778;28;20496;-58
2023/01/26 05:14:59;;;;;;;;;;;;;;;14.80;47.08;102527.81;2088413;28;19936;-58
2023/01/26 05:16:18;;;;;;;;;;;;;;;14.80;46.72;102525.09;2079893;28;20020;-60
2023/01/26 05:17:32;;;;;;;;;;;;;;;14.80;46.73;102527.81;2082917;28;19925;-57
2023/01/26 05:18:45;;;;;;;;;;;;;;;14.79;47.01;102528.94;2088275;28;19936;-58
2023/01/26 05:20:01;;;;;;;;;;;;;;;14.80;46.96;102536.78;2082414;28;19929;-57
2023/01/26 05:21:13;;;;;;;;;;;;;;;14.80;46.95;102522.38;2081408;28;20359;-58
2023/01/26 05:22:20;;;;;;;;;;;;;;;14.80;47.13;102530.53;2077710;28;19929;-58
2023/01/26 05:23:43;;;;;;;;;;;;;;;14.80;47.05;102525.91;2085187;28;20384;-58
2023/01/26 05:25:03;;;;;;;;;;;;;;;14.80;46.92;102533.25;2081431;28;20403;-58
2023/01/26 05:26:20;;;;;;;;;;;;;;;14.79;46.78;102526.22;2082598;28;19936;-58
2023/01/26 05:27:35;;;;;;;;;;;;;;;14.79;46.72;102532.44;2085222;28;19936;-58
2023/01/26 05:28:38;;;;;;;;;;;;;;;14.78;46.95;102536.31;2078093;28;19929;-58
2023/01/26 05:29:40;;;;;;;;;;;;;;;14.78;46.95;102533.56;2080414;28;20002;-59
2023/01/26 05:30:42;;;;;;;;;;;;;;;14.79;47.00;102537.09;2084915;28;20404;-58
2023/01/26 05:31:44;;;;;;;;;;;;;;;14.77;46.91;102528.47;2085965;28;19928;-58
2023/01/26 05:32:46;;;;;;;;;;;;;;;14.78;46.92;102535.50;2085960;28;20015;-57
2023/01/26 05:33:49;;;;;;;;;;;;;;;14.77;46.97;102529.28;2086124;28;19937;-58
2023/01/26 05:34:56;;;;;;;;;;;;;;;14.77;47.06;102533.91;2085256;28;20027;-57
2023/01/26 05:36:04;;;;;;;;;;;;;;;14.78;47.08;102538.22;2080106;28;19937;-58
2023/01/26 05:37:06;;;;;;;;;;;;;;;14.77;47.12;102533.91;2076999;28;20012;-58
2023/01/26 05:38:10;;;;;;;;;;;;;;;14.77;47.19;102528.47;2083693;28;19929;-58
2023/01/26 05:39:12;;;;;;;;;;;;;;;14.77;46.94;102533.91;2085836;28;19929;-59
2023/01/26 05:40:15;;;;;;;;;;;;;;;14.77;47.29;102539.34;2088575;28;19928;-58
2023/01/26 05:41:19;;;;;;;;;;;;;;;14.77;47.12;102542.06;2088559;28;20676;-58
2023/01/26 05:42:35;;;;;;;;;;;;;;;14.76;46.97;102540.47;2074159;28;19929;-58
2023/01/26 05:43:45;;;;;;;;;;;;;;;14.76;46.99;102538.53;2084531;28;19929;-58
2023/01/26 05:45:13;;;;;;;;;;;;;;;14.76;47.21;102540.47;2081182;28;19929;-58
2023/01/26 05:46:16;;;;;;;;;;;;;;;14.76;47.12;102538.53;2081849;28;20466;-59
2023/01/26 05:47:18;;;;;;;;;;;;;;;14.75;46.94;102539.69;2084049;28;19929;-57
2023/01/26 05:48:23;;;;;;;;;;;;;;;14.76;47.01;102540.47;2086219;28;19933;-59
2023/01/26 05:49:26;;;;;;;;;;;;;;;14.75;47.33;102547.84;2085500;28;19925;-58
2023/01/26 05:50:29;;;;;;;;;;;;;;;14.75;47.17;102544.31;2078394;28;19933;-57
2023/01/26 05:51:50;;;;;;;;;;;;;;;14.75;47.14;102541.59;2084552;28;19983;-58
2023/01/26 05:52:53;;;;;;;;;;;;;;;14.75;47.34;102552.47;2081271;28;20012;-57
2023/01/26 05:53:54;;;;;;;;;;;;;;;14.75;47.15;102545.13;2079065;28;20012;-58
2023/01/26 05:54:57;;;;;;;;;;;;;;;14.75;47.41;102549.75;2086235;28;20154;-58
2023/01/26 05:55:59;;;;;;;;;;;;;;;14.74;47.20;102554.41;2088287;28;19928;-57
2023/01/26 05:57:03;;;;;;;;;;;;;;;14.74;47.41;102556.31;2079988;28;19976;-58
2023/01/26 05:58:07;;;;;;;;;;;;;;;14.75;47.23;102552.47;2070965;28;19951;-58
2023/01/26 05:59:09;;;;;;;;;;;;;;;14.74;47.19;102557.13;2079586;28;19929;-57
2023/01/26 06:00:11;;;;;;;;;;;;;;;14.74;47.13;102548.16;2084892;28;19929;-58
2023/01/26 06:01:25;;;;;;;;;;;;;;;14.74;47.24;102550.88;2075837;28;19929;-57
2023/01/26 06:02:33;;;;;;;;;;;;;;;14.74;47.14;102550.88;2080390;28;19936;-58
2023/01/26 06:03:35;;;;;;;;;;;;;;;14.73;47.43;102552.78;2075033;28;19925;-59
2023/01/26 06:04:37;;;;;;;;;;;;;;;14.73;47.13;102552.00;2084765;28;19935;-59
2023/01/26 06:05:39;;;;;;;;;;;;;;;14.73;47.17;102555.50;2084152;28;19929;-59
2023/01/26 06:06:51;;;;;;;;;;;;;;;14.74;47.50;102556.31;2074329;28;20499;-58
2023/01/26 06:08:06;;;;;;;;;;;;;;;14.73;47.13;102549.28;2081077;28;19929;-59
2023/01/26 06:09:23;;;;;;;;;;;;;;;14.71;47.10;102552.31;2088059;28;19933;-58
2023/01/26 06:10:43;;;;;;;;;;;;;;;14.72;47.25;102558.56;2084148;28;19932;-59
2023/01/26 06:12:02;;;;;;;;;;;;;;;14.72;47.18;102558.56;2076039;28;19967;-57
2023/01/26 06:13:23;;;;;;;;;;;;;;;14.72;47.44;102564.00;2084383;28;19975;-59
2023/01/26 06:14:27;;;;;;;;;;;;;;;14.72;47.28;102569.44;2088561;28;19933;-57
2023/01/26 06:15:30;;;;;;;;;;;;;;;14.72;47.39;102564.00;2074618;28;19929;-58
2023/01/26 06:16:32;;;;;;;;;;;;;;;14.71;46.97;102574.06;2072688;28;19933;-59
2023/01/26 06:17:35;;;;;;;;;;;;;;;14.72;47.37;102569.44;2070489;28;19956;-59
2023/01/26 06:18:38;;;;;;;;;;;;;;;14.72;47.42;102569.44;2071478;28;19932;-57
2023/01/26 06:19:41;;;;;;;;;;;;;;;14.71;47.24;102567.84;2080262;28;20367;-58
2023/01/26 06:20:43;;;;;;;;;;;;;;;14.70;47.35;102567.03;2088900;28;19962;-59